Time,TemperatureF,DewpointF,PressureIn,WindDirection,WindDirectionDegrees,WindSpeedMPH,WindSpeedGustMPH,Humidity,HourlyPrecipIn,Conditions,Clouds,dailyrainin,SoftwareType,DateUTC
2013-08-31 00:02:00,74.0,47.0,-100.00,SE,124,4.0,6.0,38,0.00,,,0.00,,2013-08-31 06:02:00,
2013-08-31 00:22:00,74.0,48.0,-100.00,SSW,196,1.0,5.0,41,0.00,,,0.00,,2013-08-31 06:22:00,
2013-08-31 00:32:00,74.0,48.0,-100.00,SSW,196,1.0,5.0,41,0.00,,,0.00,,2013-08-31 06:32:00,
2013-08-31 00:52:00,72.0,49.0,-100.00,SSW,208,2.0,3.0,45,0.00,,,0.00,,2013-08-31 06:52:00,
2013-08-31 01:01:00,72.0,49.0,-100.00,SSW,208,2.0,3.0,45,0.00,,,0.00,,2013-08-31 07:01:00,
2013-08-31 01:22:00,71.0,50.0,-100.00,SW,233,1.0,3.0,47,0.00,,,0.00,,2013-08-31 07:22:00,
2013-08-31 01:32:00,71.0,50.0,-100.00,SW,233,1.0,3.0,47,0.00,,,0.00,,2013-08-31 07:32:00,
2013-08-31 01:52:00,70.0,50.0,-100.00,SW,220,1.0,2.0,49,0.00,,,0.00,,2013-08-31 07:52:00,
2013-08-31 02:03:00,70.0,50.0,-100.00,SW,220,1.0,2.0,49,0.00,,,0.00,,2013-08-31 08:03:00,
2013-08-31 02:22:00,69.0,50.0,-100.00,WSW,243,1.0,3.0,52,0.00,,,0.00,,2013-08-31 08:22:00,
2013-08-31 02:32:00,69.0,50.0,-100.00,WSW,243,1.0,3.0,52,0.00,,,0.00,,2013-08-31 08:32:00,
2013-08-31 02:52:00,68.0,51.0,-100.00,WSW,254,2.0,4.0,53,0.00,,,0.00,,2013-08-31 08:52:00,
2013-08-31 03:02:00,68.0,51.0,-100.00,WSW,254,2.0,4.0,53,0.00,,,0.00,,2013-08-31 09:02:00,
2013-08-31 03:23:00,68.0,50.0,-100.00,West,260,4.0,6.0,54,0.00,,,0.00,,2013-08-31 09:23:00,
2013-08-31 03:33:00,68.0,50.0,-100.00,West,260,4.0,6.0,54,0.00,,,0.00,,2013-08-31 09:33:00,
2013-08-31 03:53:00,68.0,51.0,-100.00,West,263,3.0,5.0,54,0.00,,,0.00,,2013-08-31 09:53:00,
2013-08-31 04:03:00,68.0,51.0,-100.00,West,263,3.0,5.0,54,0.00,,,0.00,,2013-08-31 10:03:00,
2013-08-31 04:23:00,67.0,51.0,-100.00,West,271,3.0,5.0,56,0.00,,,0.00,,2013-08-31 10:23:00,
2013-08-31 04:33:00,67.0,51.0,-100.00,West,271,3.0,5.0,56,0.00,,,0.00,,2013-08-31 10:33:00,
2013-08-31 04:53:00,66.0,50.0,-100.00,West,267,1.0,4.0,57,0.00,,,0.00,,2013-08-31 10:53:00,
2013-08-31 05:02:00,66.0,50.0,-100.00,West,267,1.0,4.0,57,0.00,,,0.00,,2013-08-31 11:02:00,
2013-08-31 05:21:00,66.0,50.0,-100.00,West,281,5.0,12.0,57,0.00,,,0.00,,2013-08-31 11:21:00,
2013-08-31 05:33:00,66.0,50.0,-100.00,West,281,5.0,12.0,57,0.00,,,0.00,,2013-08-31 11:33:00,
2013-08-31 05:52:00,65.0,50.0,-100.00,West,274,2.0,5.0,59,0.00,,,0.00,,2013-08-31 11:52:00,
2013-08-31 06:02:00,65.0,50.0,-100.00,West,274,2.0,5.0,59,0.00,,,0.00,,2013-08-31 12:02:00,
2013-08-31 06:22:00,65.0,50.0,-100.00,North,357,4.0,6.0,58,0.00,,,0.00,,2013-08-31 12:22:00,
2013-08-31 06:31:00,65.0,50.0,-100.00,North,357,4.0,6.0,58,0.00,,,0.00,,2013-08-31 12:31:00,
2013-08-31 06:52:00,64.0,49.0,-100.00,NNW,337,4.0,8.0,59,0.00,,,0.00,,2013-08-31 12:52:00,
2013-08-31 07:01:00,64.0,49.0,-100.00,NNW,337,4.0,8.0,59,0.00,,,0.00,,2013-08-31 13:01:00,
2013-08-31 07:22:00,63.0,49.0,-100.00,NNW,340,6.0,11.0,60,0.00,,,0.00,,2013-08-31 13:22:00,
2013-08-31 07:31:00,63.0,49.0,-100.00,NNW,340,6.0,11.0,60,0.00,,,0.00,,2013-08-31 13:31:00,
2013-08-31 07:52:00,63.0,49.0,-100.00,NNW,342,5.0,9.0,60,0.00,,,0.00,,2013-08-31 13:52:00,
2013-08-31 08:01:00,63.0,49.0,-100.00,NNW,342,5.0,9.0,60,0.00,,,0.00,,2013-08-31 14:01:00,
2013-08-31 08:22:00,63.0,49.0,-100.00,North,352,6.0,13.0,60,0.00,,,0.00,,2013-08-31 14:22:00,
2013-08-31 08:32:00,63.0,49.0,-100.00,North,352,6.0,13.0,60,0.00,,,0.00,,2013-08-31 14:32:00,
2013-08-31 08:52:00,63.0,48.0,-100.00,North,356,6.0,10.0,60,0.00,,,0.00,,2013-08-31 14:52:00,
2013-08-31 09:01:00,63.0,48.0,-100.00,North,356,6.0,10.0,60,0.00,,,0.00,,2013-08-31 15:01:00,
2013-08-31 09:23:00,64.0,49.0,-100.00,NNE,17,5.0,11.0,59,0.00,,,0.00,,2013-08-31 15:23:00,
2013-08-31 09:34:00,64.0,49.0,-100.00,NNE,17,5.0,11.0,59,0.00,,,0.00,,2013-08-31 15:34:00,
2013-08-31 09:55:00,66.0,50.0,-100.00,NNW,346,3.0,8.0,57,0.00,,,0.00,,2013-08-31 15:55:00,
2013-08-31 10:04:00,66.0,50.0,-100.00,NNW,346,3.0,8.0,57,0.00,,,0.00,,2013-08-31 16:04:00,
2013-08-31 10:25:00,69.0,50.0,-100.00,NW,322,3.0,5.0,51,0.00,,,0.00,,2013-08-31 16:25:00,
2013-08-31 10:34:00,69.0,50.0,-100.00,NW,322,3.0,5.0,51,0.00,,,0.00,,2013-08-31 16:34:00,
2013-08-31 10:52:00,72.0,50.0,-100.00,NW,312,2.0,4.0,46,0.00,,,0.00,,2013-08-31 16:52:00,
2013-08-31 11:02:00,72.0,50.0,-100.00,NW,312,2.0,4.0,46,0.00,,,0.00,,2013-08-31 17:02:00,
2013-08-31 11:23:00,75.0,49.0,-100.00,NNE,17,2.0,4.0,40,0.00,,,0.00,,2013-08-31 17:23:00,
2013-08-31 11:34:00,75.0,49.0,-100.00,NNE,17,2.0,4.0,40,0.00,,,0.00,,2013-08-31 17:34:00,
2013-08-31 11:53:00,80.0,48.0,-100.00,North,356,3.0,5.0,32,0.00,,,0.00,,2013-08-31 17:53:00,
2013-08-31 12:02:00,80.0,48.0,-100.00,North,356,3.0,5.0,32,0.00,,,0.00,,2013-08-31 18:02:00,
2013-08-31 12:21:00,82.0,48.0,-100.00,NW,311,2.0,4.0,31,0.00,,,0.00,,2013-08-31 18:21:00,
2013-08-31 12:32:00,82.0,48.0,-100.00,NW,311,2.0,4.0,31,0.00,,,0.00,,2013-08-31 18:32:00,
2013-08-31 12:52:00,84.0,43.0,-100.00,WNW,291,3.0,4.0,24,0.00,,,0.00,,2013-08-31 18:52:00,
2013-08-31 13:01:00,84.0,43.0,-100.00,WNW,291,3.0,4.0,24,0.00,,,0.00,,2013-08-31 19:01:00,
2013-08-31 13:22:00,89.0,40.0,-100.00,SSW,206,3.0,11.0,18,0.00,,,0.00,,2013-08-31 19:22:00,
2013-08-31 13:32:00,89.0,40.0,-100.00,SSW,206,3.0,11.0,18,0.00,,,0.00,,2013-08-31 19:32:00,
2013-08-31 13:52:00,89.0,37.0,-100.00,SSE,154,7.0,11.0,17,0.00,,,0.00,,2013-08-31 19:52:00,
2013-08-31 14:02:00,89.0,37.0,-100.00,SSE,154,7.0,11.0,17,0.00,,,0.00,,2013-08-31 20:02:00,
2013-08-31 14:22:00,91.0,38.0,-100.00,NW,318,2.0,4.0,16,0.00,,,0.00,,2013-08-31 20:22:00,
2013-08-31 14:32:00,91.0,38.0,-100.00,NW,318,2.0,4.0,16,0.00,,,0.00,,2013-08-31 20:32:00,
2013-08-31 14:52:00,90.0,36.0,-100.00,SSE,158,2.0,4.0,15,0.00,,,0.00,,2013-08-31 20:52:00,
2013-08-31 15:01:00,90.0,36.0,-100.00,SSE,158,2.0,4.0,15,0.00,,,0.00,,2013-08-31 21:01:00,
2013-08-31 15:22:00,91.0,37.0,-100.00,South,189,4.0,11.0,15,0.00,,,0.00,,2013-08-31 21:22:00,
2013-08-31 15:34:00,91.0,37.0,-100.00,South,189,4.0,11.0,15,0.00,,,0.00,,2013-08-31 21:34:00,
2013-08-31 15:54:00,89.0,36.0,-100.00,West,267,3.0,6.0,16,0.00,,,0.00,,2013-08-31 21:54:00,
2013-08-31 16:04:00,89.0,36.0,-100.00,West,267,3.0,6.0,16,0.00,,,0.00,,2013-08-31 22:04:00,
2013-08-31 16:23:00,89.0,37.0,-100.00,South,176,3.0,6.0,16,0.00,,,0.00,,2013-08-31 22:23:00,
2013-08-31 16:32:00,89.0,37.0,-100.00,South,176,3.0,6.0,16,0.00,,,0.00,,2013-08-31 22:32:00,
2013-08-31 16:53:00,89.0,36.0,-100.00,SE,141,2.0,3.0,16,0.00,,,0.00,,2013-08-31 22:53:00,
2013-08-31 17:03:00,89.0,36.0,-100.00,SE,141,2.0,3.0,16,0.00,,,0.00,,2013-08-31 23:03:00,
2013-08-31 17:22:00,90.0,36.0,-100.00,South,169,3.0,8.0,15,0.00,,,0.00,,2013-08-31 23:22:00,
2013-08-31 17:33:00,90.0,36.0,-100.00,South,169,3.0,8.0,15,0.00,,,0.00,,2013-08-31 23:33:00,
2013-08-31 17:52:00,91.0,37.0,-100.00,SSE,164,3.0,6.0,15,0.00,,,0.00,,2013-08-31 23:52:00,
2013-08-31 18:01:00,91.0,37.0,-100.00,SSE,164,3.0,6.0,15,0.00,,,0.00,,2013-09-01 00:01:00,
2013-08-31 18:21:00,90.0,36.0,-100.00,SSE,168,3.0,6.0,15,0.00,,,0.00,,2013-09-01 00:21:00,
2013-08-31 18:32:00,90.0,36.0,-100.00,SSE,168,3.0,6.0,15,0.00,,,0.00,,2013-09-01 00:32:00,
2013-08-31 18:52:00,89.0,35.0,-100.00,West,267,1.0,3.0,15,0.00,,,0.00,,2013-09-01 00:52:00,
2013-08-31 19:02:00,89.0,35.0,-100.00,West,267,1.0,3.0,15,0.00,,,0.00,,2013-09-01 01:02:00,
2013-08-31 19:21:00,89.0,34.0,-100.00,South,175,2.0,4.0,14,0.00,,,0.00,,2013-09-01 01:21:00,
2013-08-31 19:32:00,89.0,34.0,-100.00,South,175,2.0,4.0,14,0.00,,,0.00,,2013-09-01 01:32:00,
2013-08-31 19:52:00,87.0,37.0,-100.00,ESE,117,1.0,2.0,17,0.00,,,0.00,,2013-09-01 01:52:00,
2013-08-31 20:02:00,87.0,37.0,-100.00,ESE,117,1.0,2.0,17,0.00,,,0.00,,2013-09-01 02:02:00,
2013-08-31 20:22:00,85.0,38.0,-100.00,South,186,0.0,1.0,19,0.00,,,0.00,,2013-09-01 02:22:00,
2013-08-31 20:32:00,85.0,38.0,-100.00,South,186,0.0,1.0,19,0.00,,,0.00,,2013-09-01 02:32:00,
2013-08-31 20:53:00,79.0,43.0,-100.00,SW,236,0.0,0.0,28,0.00,,,0.00,,2013-09-01 02:53:00,
2013-08-31 21:02:00,79.0,43.0,-100.00,SW,236,0.0,0.0,28,0.00,,,0.00,,2013-09-01 03:02:00,
2013-08-31 21:23:00,75.0,42.0,-100.00,South,188,0.0,0.0,30,0.00,,,0.00,,2013-09-01 03:23:00,
2013-08-31 21:35:00,75.0,42.0,-100.00,South,188,0.0,0.0,30,0.00,,,0.00,,2013-09-01 03:35:00,
2013-08-31 21:54:00,74.0,40.0,-100.00,South,178,0.0,1.0,29,0.00,,,0.00,,2013-09-01 03:54:00,
2013-08-31 22:03:00,-999.0,-99.9,-100.00,South,178,0.0,1.0,-999,-99.99,,,-99.99,,2013-09-01 04:03:00,
2013-08-31 22:24:00,73.0,40.0,-100.00,SSE,158,2.0,3.0,30,0.00,,,0.00,,2013-09-01 04:24:00,
2013-08-31 22:34:00,73.0,40.0,-100.00,SSE,158,2.0,3.0,30,0.00,,,0.00,,2013-09-01 04:34:00,
2013-08-31 22:54:00,72.0,39.0,-100.00,WSW,241,1.0,3.0,31,0.00,,,0.00,,2013-09-01 04:54:00,
2013-08-31 23:03:00,72.0,39.0,-100.00,WSW,241,1.0,3.0,31,0.00,,,0.00,,2013-09-01 05:03:00,
2013-08-31 23:23:00,71.0,39.0,-100.00,SW,226,1.0,2.0,31,0.00,,,0.00,,2013-09-01 05:23:00,
2013-08-31 23:43:00,70.0,38.0,-100.00,South,188,2.0,4.0,31,0.00,,,0.00,,2013-09-01 05:43:00,